Time;durP1;ratioP1;P1;durP2;ratioP2;P2;SDS_P1;SDS_P2;PMS_P1;PMS_P2;Temp;Humidity;BMP_temperature;BMP_pressure;BME280_temperature;BME280_humidity;BME280_pressure;Samples;Min_cycle;Max_cycle;Signal;HPM_P1;HPM_P2
2022/02/23 00:01:35;;;;;;;13.80;4.57;;;;;;;;;;5017482;28;20239;-62
2022/02/23 00:04:03;;;;;;;14.00;4.13;;;;;;;;;;5024399;28;20267;-63
2022/02/23 00:06:32;;;;;;;12.00;3.83;;;;;;;;;;5037260;28;20274;-64
2022/02/23 00:09:00;;;;;;;13.73;4.17;;;;;;;;;;5037356;28;20294;-64
2022/02/23 00:11:29;;;;;;;18.40;4.20;;;;;;;;;;5037035;28;20318;-64
2022/02/23 00:13:57;;;;;;;18.13;3.67;;;;;;;;;;5037222;28;20642;-64
2022/02/23 00:16:25;;;;;;;16.73;4.60;;;;;;;;;;5040205;28;20247;-64
2022/02/23 00:18:54;;;;;;;14.57;3.63;;;;;;;;;;5041420;28;20295;-65
2022/02/23 00:21:22;;;;;;;15.97;4.67;;;;;;;;;;5041342;28;20245;-65
2022/02/23 00:23:50;;;;;;;12.60;3.83;;;;;;;;;;5040996;28;20290;-65
2022/02/23 00:26:18;;;;;;;15.97;3.70;;;;;;;;;;5040939;28;20311;-64
2022/02/23 00:28:47;;;;;;;11.80;3.57;;;;;;;;;;5041250;28;20294;-64
2022/02/23 00:31:15;;;;;;;12.70;3.70;;;;;;;;;;5040876;28;20235;-65
2022/02/23 00:33:46;;;;;;;15.03;3.97;;;;;;;;;;5041045;28;20242;-65
2022/02/23 00:36:14;;;;;;;16.93;3.90;;;;;;;;;;5035727;28;20317;-64
2022/02/23 00:38:42;;;;;;;15.47;4.10;;;;;;;;;;5021261;28;20247;-64
2022/02/23 00:41:10;;;;;;;21.27;3.63;;;;;;;;;;5020863;28;20741;-63
2022/02/23 00:43:38;;;;;;;12.77;3.57;;;;;;;;;;5021080;28;20212;-64
2022/02/23 00:46:07;;;;;;;14.10;3.83;;;;;;;;;;5020632;28;20242;-65
2022/02/23 00:48:35;;;;;;;11.53;3.47;;;;;;;;;;5020883;28;20291;-64
2022/02/23 00:51:03;;;;;;;10.97;3.80;;;;;;;;;;5021070;28;20291;-64
2022/02/23 00:53:31;;;;;;;12.37;4.27;;;;;;;;;;5020475;28;20648;-64
2022/02/23 00:55:59;;;;;;;21.03;4.40;;;;;;;;;;5020684;28;20651;-64
2022/02/23 00:58:27;;;;;;;10.57;3.43;;;;;;;;;;5020831;28;20295;-64
2022/02/23 01:00:55;;;;;;;16.20;4.23;;;;;;;;;;5020665;28;20248;-64
2022/02/23 01:03:25;;;;;;;15.20;3.50;;;;;;;;;;5020398;28;20216;-63
2022/02/23 01:05:55;;;;;;;11.30;3.30;;;;;;;;;;5020566;28;20235;-64
2022/02/23 01:08:23;;;;;;;16.27;3.37;;;;;;;;;;5020445;28;20627;-64
2022/02/23 01:10:51;;;;;;;13.90;3.80;;;;;;;;;;5020306;28;20640;-64
2022/02/23 01:13:19;;;;;;;14.80;4.87;;;;;;;;;;5020310;28;20287;-64
2022/02/23 01:15:47;;;;;;;9.57;3.33;;;;;;;;;;5021401;28;20260;-64
2022/02/23 01:18:15;;;;;;;16.13;3.57;;;;;;;;;;5040192;28;20235;-64
2022/02/23 01:20:45;;;;;;;11.80;3.80;;;;;;;;;;5039849;28;20239;-64
2022/02/23 01:23:12;;;;;;;15.00;3.77;;;;;;;;;;5039716;28;20754;-64
2022/02/23 01:25:40;;;;;;;13.60;4.13;;;;;;;;;;5039323;28;20643;-64
2022/02/23 01:28:09;;;;;;;14.67;4.03;;;;;;;;;;5039974;28;20298;-64
2022/02/23 01:30:37;;;;;;;14.20;3.40;;;;;;;;;;5040161;28;20276;-64
2022/02/23 01:33:05;;;;;;;18.10;3.73;;;;;;;;;;5040038;28;20287;-62
2022/02/23 01:35:33;;;;;;;12.83;3.53;;;;;;;;;;5039864;28;20259;-63
2022/02/23 01:38:05;;;;;;;11.30;3.63;;;;;;;;;;5032826;28;20618;-63
2022/02/23 01:40:33;;;;;;;18.50;4.47;;;;;;;;;;5020043;28;20235;-65
2022/02/23 01:43:01;;;;;;;19.37;5.60;;;;;;;;;;5019935;28;20300;-65
2022/02/23 01:45:29;;;;;;;18.27;4.67;;;;;;;;;;5019766;28;20224;-63
2022/02/23 01:47:57;;;;;;;14.60;4.50;;;;;;;;;;5019628;28;20213;-62
2022/02/23 01:50:25;;;;;;;15.40;3.80;;;;;;;;;;5019802;28;20247;-64
2022/02/23 01:52:53;;;;;;;11.40;3.83;;;;;;;;;;5019758;28;20247;-63
2022/02/23 01:55:22;;;;;;;18.33;3.53;;;;;;;;;;5019560;28;20327;-63
2022/02/23 01:57:51;;;;;;;18.50;3.97;;;;;;;;;;5019742;28;20246;-63
2022/02/23 02:00:20;;;;;;;16.03;3.60;;;;;;;;;;5019588;28;20208;-64
2022/02/23 02:02:48;;;;;;;10.00;3.20;;;;;;;;;;5019141;28;20295;-64
2022/02/23 02:05:16;;;;;;;16.33;3.90;;;;;;;;;;5019172;28;20259;-63
2022/02/23 02:07:44;;;;;;;12.37;3.60;;;;;;;;;;5019404;28;20314;-63
2022/02/23 02:10:12;;;;;;;9.60;3.53;;;;;;;;;;5019276;28;20211;-62
2022/02/23 02:12:42;;;;;;;15.47;3.67;;;;;;;;;;5019553;28;20291;-64
2022/02/23 02:15:10;;;;;;;12.57;3.17;;;;;;;;;;5019066;28;20851;-64
2022/02/23 02:17:41;;;;;;;12.67;4.30;;;;;;;;;;5035156;28;20290;-64
2022/02/23 02:20:10;;;;;;;14.73;4.43;;;;;;;;;;5039002;28;20290;-65
2022/02/23 02:22:39;;;;;;;10.73;3.80;;;;;;;;;;5039033;28;20239;-64
2022/02/23 02:25:08;;;;;;;12.80;4.00;;;;;;;;;;5038534;28;20566;-63
2022/02/23 02:27:36;;;;;;;8.60;3.83;;;;;;;;;;5038966;28;20263;-62
2022/02/23 02:30:05;;;;;;;15.70;4.07;;;;;;;;;;5038900;28;20239;-64
2022/02/23 02:32:33;;;;;;;14.47;3.50;;;;;;;;;;5038573;28;20250;-65
2022/02/23 02:35:01;;;;;;;10.33;3.37;;;;;;;;;;5038693;28;20287;-63
2022/02/23 02:37:29;;;;;;;19.23;3.60;;;;;;;;;;5022608;28;20335;-65
2022/02/23 02:39:58;;;;;;;15.90;3.87;;;;;;;;;;5023073;28;20263;-63
2022/02/23 02:42:26;;;;;;;11.97;3.80;;;;;;;;;;5038734;28;20246;-63
2022/02/23 02:44:55;;;;;;;15.60;3.90;;;;;;;;;;5038467;28;20204;-63
2022/02/23 02:47:24;;;;;;;7.23;3.30;;;;;;;;;;5037943;28;20310;-63
2022/02/23 02:49:52;;;;;;;9.43;3.40;;;;;;;;;;5038199;28;20614;-63
2022/02/23 02:52:23;;;;;;;11.87;3.33;;;;;;;;;;5038377;28;20695;-63
2022/02/23 02:54:51;;;;;;;9.37;3.47;;;;;;;;;;5038222;28;20236;-63
2022/02/23 02:57:21;;;;;;;9.33;3.27;;;;;;;;;;5038331;28;20242;-63
2022/02/23 02:59:49;;;;;;;12.80;4.13;;;;;;;;;;5038349;28;20246;-64
2022/02/23 03:02:17;;;;;;;12.50;4.03;;;;;;;;;;5037695;28;20687;-64
2022/02/23 03:04:45;;;;;;;8.00;3.27;;;;;;;;;;5038103;28;20243;-64
2022/02/23 03:07:13;;;;;;;17.37;3.40;;;;;;;;;;5037991;28;20318;-64
2022/02/23 03:09:41;;;;;;;15.40;4.07;;;;;;;;;;5037868;28;20638;-64
2022/02/23 03:12:09;;;;;;;7.90;3.47;;;;;;;;;;5037849;28;20250;-64
2022/02/23 03:14:39;;;;;;;12.87;3.63;;;;;;;;;;5038207;28;20238;-64
2022/02/23 03:17:07;;;;;;;15.07;3.53;;;;;;;;;;5037642;28;20284;-64
2022/02/23 03:19:35;;;;;;;12.43;4.17;;;;;;;;;;5037728;28;20727;-64
2022/02/23 03:22:04;;;;;;;15.83;3.70;;;;;;;;;;5038010;28;20235;-64
2022/02/23 03:24:32;;;;;;;6.50;3.20;;;;;;;;;;5037483;28;20645;-64
2022/02/23 03:27:00;;;;;;;9.40;2.77;;;;;;;;;;5037572;28;20263;-64
2022/02/23 03:29:28;;;;;;;15.17;3.53;;;;;;;;;;5037975;28;20235;-64
2022/02/23 03:31:58;;;;;;;12.20;2.93;;;;;;;;;;5037540;28;20235;-64
2022/02/23 03:34:25;;;;;;;10.87;3.20;;;;;;;;;;5037697;28;20294;-64
2022/02/23 03:36:53;;;;;;;14.33;4.53;;;;;;;;;;5026554;28;20308;-64
2022/02/23 03:39:22;;;;;;;18.23;3.57;;;;;;;;;;5017874;28;20292;-64
2022/02/23 03:41:50;;;;;;;18.47;3.80;;;;;;;;;;5017913;28;20246;-64
2022/02/23 03:44:18;;;;;;;12.87;3.33;;;;;;;;;;5017676;28;20715;-64
2022/02/23 03:46:46;;;;;;;12.73;3.40;;;;;;;;;;5017501;28;20242;-64
2022/02/23 03:49:15;;;;;;;8.97;4.20;;;;;;;;;;5017654;28;20291;-64
2022/02/23 03:51:44;;;;;;;11.63;3.13;;;;;;;;;;5017567;28;20239;-64
2022/02/23 03:54:12;;;;;;;16.20;3.83;;;;;;;;;;5017495;28;20291;-64
2022/02/23 03:56:40;;;;;;;14.80;3.53;;;;;;;;;;5017603;28;20699;-64
2022/02/23 03:59:08;;;;;;;13.83;4.00;;;;;;;;;;5017817;28;20276;-64
2022/02/23 04:01:37;;;;;;;13.97;4.13;;;;;;;;;;5017182;28;20239;-64
2022/02/23 04:04:05;;;;;;;11.20;3.63;;;;;;;;;;5017555;28;20243;-64
2022/02/23 04:06:35;;;;;;;11.20;3.63;;;;;;;;;;5017431;28;20315;-64
2022/02/23 04:09:04;;;;;;;12.17;3.40;;;;;;;;;;5017284;28;20295;-64
2022/02/23 04:11:32;;;;;;;18.47;4.10;;;;;;;;;;5017279;28;20276;-64
2022/02/23 04:14:00;;;;;;;21.50;4.67;;;;;;;;;;5017553;28;20272;-64
2022/02/23 04:16:28;;;;;;;14.07;3.93;;;;;;;;;;5023526;28;20254;-64
2022/02/23 04:18:56;;;;;;;16.20;3.97;;;;;;;;;;5037068;28;20237;-64
2022/02/23 04:21:24;;;;;;;14.53;3.40;;;;;;;;;;5037264;28;20212;-64
2022/02/23 04:23:53;;;;;;;12.57;3.80;;;;;;;;;;5037208;28;20294;-64
2022/02/23 04:26:21;;;;;;;14.33;3.43;;;;;;;;;;5036931;28;20255;-62
2022/02/23 04:28:50;;;;;;;20.03;4.50;;;;;;;;;;5037117;28;20259;-63
2022/02/23 04:31:23;;;;;;;13.93;4.17;;;;;;;;;;5036742;28;20207;-64
2022/02/23 04:33:51;;;;;;;10.37;3.53;;;;;;;;;;5037309;28;20234;-64
2022/02/23 04:36:19;;;;;;;12.67;3.23;;;;;;;;;;5030680;28;20252;-64
2022/02/23 04:38:47;;;;;;;15.50;3.37;;;;;;;;;;5017410;28;20243;-64
2022/02/23 04:41:17;;;;;;;14.90;3.57;;;;;;;;;;5023616;28;20695;-64
2022/02/23 04:43:45;;;;;;;14.03;3.40;;;;;;;;;;5036827;28;20651;-64
2022/02/23 04:46:13;;;;;;;13.57;3.17;;;;;;;;;;5036954;28;20237;-64
2022/02/23 04:48:42;;;;;;;9.80;3.37;;;;;;;;;;5037045;28;20288;-64
2022/02/23 04:51:10;;;;;;;11.47;3.63;;;;;;;;;;5036911;28;20294;-63
2022/02/23 04:53:38;;;;;;;10.40;3.07;;;;;;;;;;5026694;28;20698;-64
2022/02/23 04:56:06;;;;;;;15.90;3.37;;;;;;;;;;5026117;28;20307;-64
2022/02/23 04:58:36;;;;;;;17.00;5.10;;;;;;;;;;5028703;28;20219;-64
2022/02/23 05:01:04;;;;;;;12.60;3.20;;;;;;;;;;5026518;28;20228;-64
2022/02/23 05:03:33;;;;;;;8.57;3.50;;;;;;;;;;5027814;28;20238;-64
2022/02/23 05:06:00;;;;;;;10.37;3.23;;;;;;;;;;5029677;28;20252;-63
2022/02/23 05:08:29;;;;;;;9.67;3.13;;;;;;;;;;5030476;28;20302;-64
2022/02/23 05:10:57;;;;;;;9.97;3.40;;;;;;;;;;5030340;28;20271;-64
2022/02/23 05:13:26;;;;;;;13.10;3.37;;;;;;;;;;5032971;28;20621;-64
2022/02/23 05:15:56;;;;;;;8.27;3.30;;;;;;;;;;5033332;28;20252;-67
2022/02/23 05:18:26;;;;;;;10.00;3.57;;;;;;;;;;5035087;28;20227;-66
2022/02/23 05:20:55;;;;;;;18.50;4.10;;;;;;;;;;5038130;28;20214;-67
2022/02/23 05:23:23;;;;;;;12.57;3.87;;;;;;;;;;5038072;28;20227;-66
2022/02/23 05:25:51;;;;;;;9.57;3.70;;;;;;;;;;5039463;28;20754;-66
2022/02/23 05:28:19;;;;;;;10.60;4.00;;;;;;;;;;5038397;28;20278;-66
2022/02/23 05:30:47;;;;;;;16.70;3.70;;;;;;;;;;5039247;28;20231;-66
2022/02/23 05:33:17;;;;;;;11.37;3.43;;;;;;;;;;5038929;28;20644;-64
2022/02/23 05:35:45;;;;;;;13.23;4.13;;;;;;;;;;5027855;28;20295;-65
2022/02/23 05:38:13;;;;;;;10.63;4.17;;;;;;;;;;5020167;28;20211;-64
2022/02/23 05:40:46;;;;;;;11.23;3.40;;;;;;;;;;5019805;28;20258;-66
2022/02/23 05:43:14;;;;;;;9.10;3.43;;;;;;;;;;5019949;28;20267;-66
2022/02/23 05:45:42;;;;;;;8.67;3.70;;;;;;;;;;5019695;28;20263;-64
2022/02/23 05:48:10;;;;;;;15.43;3.73;;;;;;;;;;5019880;28;20260;-64
2022/02/23 05:50:40;;;;;;;12.00;4.00;;;;;;;;;;5034208;28;20231;-64
2022/02/23 05:53:08;;;;;;;11.63;3.30;;;;;;;;;;5038117;28;20282;-65
2022/02/23 05:55:36;;;;;;;8.53;3.33;;;;;;;;;;5036762;28;20266;-65
2022/02/23 05:58:04;;;;;;;11.07;3.17;;;;;;;;;;5036465;28;20279;-65
2022/02/23 06:00:32;;;;;;;15.60;4.50;;;;;;;;;;5034071;28;20239;-66
2022/02/23 06:03:00;;;;;;;13.20;3.80;;;;;;;;;;5035307;28;20204;-66
2022/02/23 06:05:28;;;;;;;11.27;3.70;;;;;;;;;;5037114;28;20715;-65
2022/02/23 06:07:58;;;;;;;11.73;3.67;;;;;;;;;;5038198;28;20310;-66
2022/02/23 06:10:27;;;;;;;9.20;3.10;;;;;;;;;;5035564;28;20310;-66
2022/02/23 06:12:55;;;;;;;11.87;3.10;;;;;;;;;;5035495;28;20671;-66
2022/02/23 06:15:25;;;;;;;9.27;3.67;;;;;;;;;;5037970;28;20227;-66
2022/02/23 06:17:53;;;;;;;12.23;4.03;;;;;;;;;;5036994;28;20671;-66
2022/02/23 06:20:21;;;;;;;7.77;3.33;;;;;;;;;;5036434;28;20287;-66
2022/02/23 06:22:49;;;;;;;15.20;3.73;;;;;;;;;;5034785;28;20235;-66
2022/02/23 06:25:18;;;;;;;15.03;3.90;;;;;;;;;;5037423;28;20220;-66
2022/02/23 06:27:46;;;;;;;8.87;3.67;;;;;;;;;;5034046;28;20298;-65
2022/02/23 06:30:14;;;;;;;10.87;3.37;;;;;;;;;;5036925;28;20278;-66
2022/02/23 06:32:42;;;;;;;20.17;4.57;;;;;;;;;;5033049;28;20195;-65
2022/02/23 06:35:10;;;;;;;14.20;3.50;;;;;;;;;;5035714;28;20239;-65
2022/02/23 06:37:38;;;;;;;13.27;3.80;;;;;;;;;;5037907;28;20613;-65
2022/02/23 06:40:08;;;;;;;7.60;3.03;;;;;;;;;;5038363;28;20235;-65
2022/02/23 06:42:38;;;;;;;10.00;3.37;;;;;;;;;;5038494;28;20235;-65
2022/02/23 06:45:07;;;;;;;13.90;3.50;;;;;;;;;;5038503;28;20246;-65
2022/02/23 06:47:35;;;;;;;9.37;3.10;;;;;;;;;;5038304;28;20242;-65
2022/02/23 06:50:03;;;;;;;12.60;3.57;;;;;;;;;;5037722;28;20281;-66
2022/02/23 06:52:32;;;;;;;9.20;3.40;;;;;;;;;;5033777;28;20635;-66
2022/02/23 06:55:00;;;;;;;11.27;2.60;;;;;;;;;;5035199;28;20705;-66
2022/02/23 06:57:35;;;;;;;14.87;3.40;;;;;;;;;;5032028;28;20204;-65
2022/02/23 07:00:06;;;;;;;15.73;4.03;;;;;;;;;;5021499;28;20706;-67
2022/02/23 07:02:34;;;;;;;15.53;3.53;;;;;;;;;;5034434;28;20264;-65
2022/02/23 07:05:02;;;;;;;16.20;3.53;;;;;;;;;;5035080;28;20278;-62
2022/02/23 07:07:31;;;;;;;11.43;2.93;;;;;;;;;;5036395;28;20647;-63
2022/02/23 07:09:59;;;;;;;14.27;3.83;;;;;;;;;;5032353;28;20262;-63
2022/02/23 07:12:27;;;;;;;12.33;3.70;;;;;;;;;;5035338;28;20311;-63
2022/02/23 07:14:56;;;;;;;12.20;3.60;;;;;;;;;;5032205;28;20326;-62
2022/02/23 07:17:26;;;;;;;16.13;7.43;;;;;;;;;;5036738;28;20199;-63
2022/02/23 07:19:54;;;;;;;11.67;3.83;;;;;;;;;;5035578;28;20271;-63
2022/02/23 07:22:22;;;;;;;7.23;3.07;;;;;;;;;;5035749;28;20548;-64
2022/02/23 07:24:50;;;;;;;8.37;2.93;;;;;;;;;;5034744;28;20290;-64
2022/02/23 07:27:18;;;;;;;12.43;3.03;;;;;;;;;;5035751;28;20287;-63
2022/02/23 07:29:47;;;;;;;11.70;3.77;;;;;;;;;;5032970;28;20223;-64
2022/02/23 07:32:14;;;;;;;10.63;3.70;;;;;;;;;;5036661;28;20731;-63
2022/02/23 07:34:47;;;;;;;9.87;3.17;;;;;;;;;;5035800;28;20947;-63
2022/02/23 07:37:15;;;;;;;13.13;4.27;;;;;;;;;;5036347;28;20250;-63
2022/02/23 07:39:43;;;;;;;10.67;3.80;;;;;;;;;;5034504;28;20231;-64
2022/02/23 07:42:11;;;;;;;14.80;3.93;;;;;;;;;;5034744;28;20231;-64
2022/02/23 07:44:59;;;;;;;10.90;3.63;;;;;;;;;;5035166;28;20214;-64
2022/02/23 07:47:27;;;;;;;10.57;3.83;;;;;;;;;;5034115;28;20200;-65
2022/02/23 07:49:57;;;;;;;10.67;3.37;;;;;;;;;;5035187;28;20254;-63
2022/02/23 07:52:25;;;;;;;12.30;4.00;;;;;;;;;;5032580;28;20283;-63
2022/02/23 07:54:53;;;;;;;12.77;4.30;;;;;;;;;;5034141;28;20235;-62
2022/02/23 07:57:21;;;;;;;15.10;3.70;;;;;;;;;;5033857;28;20237;-63
2022/02/23 07:59:49;;;;;;;14.93;3.23;;;;;;;;;;5034885;28;20234;-63
2022/02/23 08:02:18;;;;;;;10.63;3.57;;;;;;;;;;5034950;28;20689;-62
2022/02/23 08:04:51;;;;;;;11.03;3.20;;;;;;;;;;5034864;28;20203;-62
2022/02/23 08:07:22;;;;;;;12.37;3.97;;;;;;;;;;5033116;28;20232;-62
2022/02/23 08:09:50;;;;;;;10.47;4.00;;;;;;;;;;5021620;28;20258;-62
2022/02/23 08:12:18;;;;;;;15.37;3.57;;;;;;;;;;5016887;28;20244;-62
2022/02/23 08:14:48;;;;;;;7.30;3.23;;;;;;;;;;5026916;28;20211;-62
2022/02/23 08:20:22;;;;;;;14.47;3.43;;;;;;;;;;5026524;28;20200;-62
2022/02/23 08:22:52;;;;;;;9.47;2.97;;;;;;;;;;5036877;28;20207;-62
2022/02/23 08:25:20;;;;;;;8.90;3.40;;;;;;;;;;5027941;28;20224;-62
2022/02/23 08:27:48;;;;;;;16.47;3.53;;;;;;;;;;5017147;28;20212;-62
2022/02/23 08:30:16;;;;;;;7.20;2.90;;;;;;;;;;5017355;28;20243;-62
2022/02/23 08:32:45;;;;;;;7.27;2.73;;;;;;;;;;5017174;28;20212;-62
2022/02/23 08:35:33;;;;;;;10.90;3.73;;;;;;;;;;5034057;28;20226;-62
2022/02/23 08:38:03;;;;;;;6.97;2.80;;;;;;;;;;5038836;28;20221;-62
2022/02/23 08:40:31;;;;;;;8.77;2.83;;;;;;;;;;5036571;28;20266;-63
2022/02/23 08:42:59;;;;;;;7.67;3.00;;;;;;;;;;5036797;28;20208;-62
2022/02/23 08:45:28;;;;;;;8.43;3.73;;;;;;;;;;5039173;28;20760;-62
2022/02/23 08:47:56;;;;;;;12.63;3.80;;;;;;;;;;5039797;28;20246;-62
2022/02/23 08:50:24;;;;;;;11.03;3.80;;;;;;;;;;5037592;28;20219;-62
2022/02/23 08:52:52;;;;;;;13.00;3.70;;;;;;;;;;5032828;28;20255;-63
2022/02/23 08:55:22;;;;;;;10.37;3.00;;;;;;;;;;5040068;28;20231;-64
2022/02/23 08:57:50;;;;;;;11.40;2.90;;;;;;;;;;5029811;28;20315;-65
2022/02/23 09:00:18;;;;;;;8.17;3.17;;;;;;;;;;5019977;28;20287;-65
2022/02/23 09:02:46;;;;;;;18.27;4.23;;;;;;;;;;5026929;28;20283;-65
2022/02/23 09:05:14;;;;;;;19.87;4.90;;;;;;;;;;5039829;28;20704;-65
2022/02/23 09:07:42;;;;;;;13.27;4.37;;;;;;;;;;5030881;28;20307;-66
2022/02/23 09:10:10;;;;;;;14.27;4.10;;;;;;;;;;5019950;28;20279;-65
2022/02/23 09:12:40;;;;;;;16.90;3.70;;;;;;;;;;5020273;28;20232;-65
2022/02/23 09:15:11;;;;;;;13.83;4.07;;;;;;;;;;5028586;28;20239;-65
2022/02/23 09:17:39;;;;;;;12.03;3.97;;;;;;;;;;5039445;28;20239;-65
2022/02/23 09:20:07;;;;;;;9.33;3.50;;;;;;;;;;5039761;28;20235;-65
2022/02/23 09:22:36;;;;;;;12.33;4.27;;;;;;;;;;5039886;28;20200;-65
2022/02/23 09:25:05;;;;;;;10.80;3.10;;;;;;;;;;5037983;28;20613;-64
2022/02/23 09:27:34;;;;;;;8.30;2.63;;;;;;;;;;5027523;28;20235;-64
2022/02/23 09:30:04;;;;;;;10.20;2.73;;;;;;;;;;5019878;28;20281;-65
2022/02/23 09:32:32;;;;;;;8.97;2.83;;;;;;;;;;5019673;28;20208;-66
2022/02/23 09:35:00;;;;;;;7.97;3.37;;;;;;;;;;5026352;28;20239;-64
2022/02/23 09:37:28;;;;;;;8.83;3.20;;;;;;;;;;5025630;28;20262;-65
2022/02/23 09:39:56;;;;;;;9.40;3.20;;;;;;;;;;5019659;28;20287;-64
2022/02/23 09:42:26;;;;;;;13.40;3.87;;;;;;;;;;5019601;28;20299;-64
2022/02/23 09:44:57;;;;;;;6.57;2.93;;;;;;;;;;5019295;28;20643;-64
2022/02/23 09:47:40;;;;;;;11.03;2.67;;;;;;;;;;5037083;28;20196;-64
2022/02/23 09:50:12;;;;;;;6.23;2.40;;;;;;;;;;5036394;28;20257;-64
2022/02/23 09:52:40;;;;;;;7.63;3.53;;;;;;;;;;5035492;28;20282;-64
2022/02/23 09:55:10;;;;;;;5.97;2.30;;;;;;;;;;5037364;28;20272;-64
2022/02/23 09:57:38;;;;;;;4.90;2.20;;;;;;;;;;5036688;28;20223;-64
2022/02/23 10:00:07;;;;;;;11.70;2.80;;;;;;;;;;5034782;28;20279;-65
2022/02/23 10:02:35;;;;;;;5.03;2.20;;;;;;;;;;5035592;28;20282;-64
2022/02/23 10:05:05;;;;;;;10.10;2.80;;;;;;;;;;5037164;28;20730;-66
2022/02/23 10:07:38;;;;;;;8.20;2.67;;;;;;;;;;5037723;28;20663;-66
2022/02/23 10:10:08;;;;;;;11.30;3.27;;;;;;;;;;5022050;28;20315;-64
2022/02/23 10:12:37;;;;;;;7.27;2.23;;;;;;;;;;5019087;28;20213;-64
2022/02/23 10:15:08;;;;;;;6.27;2.83;;;;;;;;;;5020037;28;20216;-64
2022/02/23 10:17:37;;;;;;;6.80;2.17;;;;;;;;;;5037428;28;20287;-66
2022/02/23 10:20:19;;;;;;;8.17;2.70;;;;;;;;;;5035694;28;20264;-67
2022/02/23 10:22:48;;;;;;;6.83;2.40;;;;;;;;;;5031853;28;20239;-67
2022/02/23 10:25:21;;;;;;;4.70;2.03;;;;;;;;;;5028015;28;20228;-66
2022/02/23 10:27:49;;;;;;;6.93;2.40;;;;;;;;;;5038763;28;20275;-65
2022/02/23 10:30:29;;;;;;;6.67;3.33;;;;;;;;;;5038027;28;20231;-64
2022/02/23 10:32:57;;;;;;;5.33;2.60;;;;;;;;;;5033536;28;20234;-63
2022/02/23 10:35:29;;;;;;;6.47;2.33;;;;;;;;;;5037323;28;20382;-66
2022/02/23 10:37:57;;;;;;;10.17;2.73;;;;;;;;;;5035511;28;20227;-65
2022/02/23 10:40:28;;;;;;;4.10;2.27;;;;;;;;;;5034366;28;20638;-64
2022/02/23 10:42:56;;;;;;;5.40;2.00;;;;;;;;;;5034876;28;20619;-66
2022/02/23 10:45:24;;;;;;;3.27;1.97;;;;;;;;;;5035651;28;20262;-66
2022/02/23 10:47:52;;;;;;;8.00;3.97;;;;;;;;;;5035252;28;20231;-66
2022/02/23 10:50:23;;;;;;;8.80;2.60;;;;;;;;;;5025725;28;20638;-66
2022/02/23 10:52:57;;;;;;;7.07;2.73;;;;;;;;;;5022240;28;20208;-66
2022/02/23 10:55:26;;;;;;;7.07;2.40;;;;;;;;;;5017337;28;20247;-66
2022/02/23 10:57:56;;;;;;;4.90;2.97;;;;;;;;;;5036786;28;20286;-64
2022/02/23 11:00:25;;;;;;;86.53;48.90;;;;;;;;;;5032109;28;20207;-66
2022/02/23 11:02:54;;;;;;;17.67;8.90;;;;;;;;;;5017988;28;20192;-65
2022/02/23 11:05:24;;;;;;;4.63;3.27;;;;;;;;;;5019790;28;20223;-65
2022/02/23 11:07:53;;;;;;;6.67;2.73;;;;;;;;;;5025213;28;20208;-65
2022/02/23 11:10:26;;;;;;;3.97;2.37;;;;;;;;;;5028055;28;20650;-66
2022/02/23 11:12:55;;;;;;;7.17;2.07;;;;;;;;;;5026659;28;20226;-66
2022/02/23 11:15:26;;;;;;;6.40;2.40;;;;;;;;;;5030721;28;20243;-66
2022/02/23 11:17:55;;;;;;;5.77;1.73;;;;;;;;;;5034621;28;20290;-66
2022/02/23 11:20:28;;;;;;;8.60;2.07;;;;;;;;;;5032159;28;20673;-65
2022/02/23 11:22:58;;;;;;;6.60;1.80;;;;;;;;;;5035848;28;20215;-65
2022/02/23 11:25:30;;;;;;;6.50;1.80;;;;;;;;;;5034435;28;20215;-65
2022/02/23 11:28:01;;;;;;;7.23;1.77;;;;;;;;;;5035323;28;20237;-65
2022/02/23 11:30:30;;;;;;;5.93;1.87;;;;;;;;;;5035061;28;20231;-65
2022/02/23 11:33:03;;;;;;;3.13;1.60;;;;;;;;;;5033982;28;20199;-65
2022/02/23 11:35:52;;;;;;;2.30;1.20;;;;;;;;;;5032374;28;20246;-65
2022/02/23 11:38:29;;;;;;;2.93;1.20;;;;;;;;;;5036680;28;20287;-65
2022/02/23 11:41:00;;;;;;;2.80;1.63;;;;;;;;;;5024585;28;20651;-65
2022/02/23 11:43:32;;;;;;;4.13;1.43;;;;;;;;;;5017395;28;20223;-65
2022/02/23 11:46:01;;;;;;;3.00;1.40;;;;;;;;;;5017477;28;20243;-65
2022/02/23 11:48:44;;;;;;;5.83;1.50;;;;;;;;;;5030975;28;20232;-66
2022/02/23 11:51:22;;;;;;;3.50;1.63;;;;;;;;;;5034106;28;20306;-66
2022/02/23 11:53:51;;;;;;;2.73;1.50;;;;;;;;;;5035336;28;20565;-65
2022/02/23 11:56:21;;;;;;;3.93;1.57;;;;;;;;;;5035026;28;20910;-65
2022/02/23 11:59:09;;;;;;;3.47;1.57;;;;;;;;;;5037159;28;20208;-65
2022/02/23 12:01:47;;;;;;;3.07;1.47;;;;;;;;;;5036718;28;20294;-65
2022/02/23 12:04:18;;;;;;;2.70;1.17;;;;;;;;;;5037224;28;20294;-67
2022/02/23 12:07:09;;;;;;;3.77;1.87;;;;;;;;;;5037195;28;20231;-66
2022/02/23 12:09:56;;;;;;;8.97;1.90;;;;;;;;;;5037163;28;20239;-66
2022/02/23 12:12:32;;;;;;;2.43;1.30;;;;;;;;;;5039984;28;20311;-67
2022/02/23 12:15:03;;;;;;;7.53;1.83;;;;;;;;;;5041055;28;20290;-67
2022/02/23 12:17:47;;;;;;;2.70;1.17;;;;;;;;;;5040612;28;20718;-67
2022/02/23 12:20:33;;;;;;;4.27;1.50;;;;;;;;;;5040820;28;20242;-67
2022/02/23 12:23:02;;;;;;;5.20;1.73;;;;;;;;;;5040794;28;20199;-67
2022/02/23 12:25:46;;;;;;;4.33;1.90;;;;;;;;;;5040929;28;20223;-67
2022/02/23 12:28:16;;;;;;;2.30;1.30;;;;;;;;;;5040695;28;20207;-65
2022/02/23 12:30:48;;;;;;;2.60;1.17;;;;;;;;;;5040329;28;20246;-65
2022/02/23 12:33:17;;;;;;;3.17;1.17;;;;;;;;;;5040624;28;20814;-65
2022/02/23 12:35:45;;;;;;;2.47;1.23;;;;;;;;;;5039412;28;20269;-65
2022/02/23 12:38:15;;;;;;;2.87;1.20;;;;;;;;;;5024574;28;20296;-65
2022/02/23 12:40:43;;;;;;;1.90;1.30;;;;;;;;;;5020858;28;20296;-65
2022/02/23 12:43:12;;;;;;;3.57;1.07;;;;;;;;;;5020600;28;20290;-66
2022/02/23 12:45:48;;;;;;;1.30;1.13;;;;;;;;;;5022948;28;20263;-66
2022/02/23 12:48:16;;;;;;;3.40;1.07;;;;;;;;;;5037223;28;20295;-66
2022/02/23 12:50:44;;;;;;;1.77;0.80;;;;;;;;;;5037132;28;20386;-65
2022/02/23 12:53:13;;;;;;;1.93;0.87;;;;;;;;;;5038160;28;20265;-66
2022/02/23 12:55:41;;;;;;;3.33;1.20;;;;;;;;;;5037834;28;20255;-65
2022/02/23 12:58:09;;;;;;;0.97;0.97;;;;;;;;;;5038040;28;20318;-66
2022/02/23 13:00:37;;;;;;;1.50;0.73;;;;;;;;;;5035993;28;20279;-65
2022/02/23 13:03:10;;;;;;;1.07;1.00;;;;;;;;;;5037058;28;20555;-65
2022/02/23 13:05:39;;;;;;;1.90;1.17;;;;;;;;;;5026603;28;20219;-65
2022/02/23 13:08:09;;;;;;;4.57;0.80;;;;;;;;;;5039300;28;20231;-66
2022/02/23 13:10:37;;;;;;;1.00;1.00;;;;;;;;;;5038911;28;20753;-66
2022/02/23 13:13:07;;;;;;;1.27;1.13;;;;;;;;;;5036259;28;20285;-66
2022/02/23 13:15:35;;;;;;;4.00;1.30;;;;;;;;;;5039032;28;21077;-66
2022/02/23 13:18:07;;;;;;;1.43;0.90;;;;;;;;;;5021683;28;20282;-65
2022/02/23 13:23:51;;;;;;;1.27;1.10;;;;;;;;;;5030444;28;20652;-66
2022/02/23 13:26:20;;;;;;;1.93;1.53;;;;;;;;;;5037903;28;20307;-66
2022/02/23 13:29:01;;;;;;;2.23;1.60;;;;;;;;;;5021506;28;20205;-66
2022/02/23 13:31:36;;;;;;;2.13;1.27;;;;;;;;;;5019547;28;20242;-66
2022/02/23 13:34:14;;;;;;;1.47;1.00;;;;;;;;;;5019798;28;20246;-65
2022/02/23 13:36:44;;;;;;;1.17;1.00;;;;;;;;;;5024240;28;20234;-66
2022/02/23 13:39:18;;;;;;;0.93;0.70;;;;;;;;;;5033069;28;20321;-66
2022/02/23 13:41:58;;;;;;;1.10;0.90;;;;;;;;;;5036773;28;20294;-66
2022/02/23 13:44:27;;;;;;;3.10;0.77;;;;;;;;;;5036255;28;20630;-66
2022/02/23 13:46:59;;;;;;;3.07;1.30;;;;;;;;;;5037893;28;20231;-65
2022/02/23 13:49:28;;;;;;;2.73;1.00;;;;;;;;;;5038807;28;20670;-66
2022/02/23 13:51:58;;;;;;;1.23;0.70;;;;;;;;;;5039093;28;20682;-66
2022/02/23 13:54:26;;;;;;;2.73;0.80;;;;;;;;;;5039219;28;20242;-66
2022/02/23 13:56:55;;;;;;;1.27;0.60;;;;;;;;;;5038843;28;20726;-66
2022/02/23 13:59:43;;;;;;;3.80;1.10;;;;;;;;;;5033141;28;20215;-66
2022/02/23 14:02:13;;;;;;;2.37;1.27;;;;;;;;;;5025914;28;20260;-66
2022/02/23 14:04:43;;;;;;;2.40;0.90;;;;;;;;;;5039329;28;20239;-66
2022/02/23 14:07:19;;;;;;;2.47;0.83;;;;;;;;;;5037173;28;20695;-65
2022/02/23 14:09:48;;;;;;;2.57;0.87;;;;;;;;;;5038727;28;20231;-65
2022/02/23 14:12:16;;;;;;;2.27;0.73;;;;;;;;;;5038469;28;20395;-66
2022/02/23 14:14:45;;;;;;;1.20;1.00;;;;;;;;;;5038879;28;20247;-66
2022/02/23 14:17:21;;;;;;;2.37;1.23;;;;;;;;;;5038489;28;20227;-66
2022/02/23 14:19:50;;;;;;;4.80;1.90;;;;;;;;;;5038662;28;20238;-66
2022/02/23 14:22:24;;;;;;;7.10;2.90;;;;;;;;;;5038275;28;20693;-66
2022/02/23 14:24:59;;;;;;;2.90;1.77;;;;;;;;;;5038125;28;20208;-66
2022/02/23 14:27:29;;;;;;;1.60;0.93;;;;;;;;;;5038911;28;20207;-66
2022/02/23 14:30:18;;;;;;;0.80;0.80;;;;;;;;;;5038369;28;20213;-65
2022/02/23 14:32:46;;;;;;;1.83;0.90;;;;;;;;;;5038273;28;20255;-65
2022/02/23 14:35:15;;;;;;;1.90;0.93;;;;;;;;;;5037824;28;20318;-66
2022/02/23 14:37:48;;;;;;;5.50;2.53;;;;;;;;;;5031649;28;20212;-65
2022/02/23 14:40:18;;;;;;;2.23;1.30;;;;;;;;;;5018920;28;20208;-66
2022/02/23 14:42:48;;;;;;;2.77;1.37;;;;;;;;;;5018806;28;20204;-66
2022/02/23 14:45:17;;;;;;;4.70;1.50;;;;;;;;;;5018424;28;20235;-66
2022/02/23 14:47:49;;;;;;;2.93;0.90;;;;;;;;;;5031439;28;20226;-66
2022/02/23 14:50:19;;;;;;;1.60;1.00;;;;;;;;;;5030427;28;20204;-67
2022/02/23 14:52:51;;;;;;;1.83;1.00;;;;;;;;;;5037669;28;20326;-66
2022/02/23 14:55:21;;;;;;;1.00;0.90;;;;;;;;;;5034280;28;20227;-67
2022/02/23 14:57:52;;;;;;;1.20;0.80;;;;;;;;;;5037819;28;20207;-66